Time;durP1;ratioP1;P1;durP2;ratioP2;P2;SDS_P1;SDS_P2;PMS_P1;PMS_P2;Temp;Humidity;BMP_temperature;BMP_pressure;BME280_temperature;BME280_humidity;BME280_pressure;Samples;Min_cycle;Max_cycle;Signal;HPM_P1;HPM_P2
2022/09/21 00:00:08;;;;;;;2.15;1.67;;;;;;;9.05;68.34;99542.22;4939319;29;20031;-90
2022/09/21 00:02:33;;;;;;;2.35;1.60;;;;;;;8.95;68.97;99526.00;4955024;29;20106;-91
2022/09/21 00:04:58;;;;;;;4.28;2.03;;;;;;;8.96;68.34;99519.56;4955792;29;20038;-90
2022/09/21 00:07:24;;;;;;;4.22;2.17;;;;;;;9.04;68.46;99529.84;4971807;28;20034;-90
2022/09/21 00:09:49;;;;;;;3.65;2.17;;;;;;;8.84;68.52;99514.34;4955566;29;20026;-91
2022/09/21 00:12:15;;;;;;;4.63;2.00;;;;;;;8.79;68.98;99516.97;4954978;29;20091;-91
2022/09/21 00:14:41;;;;;;;3.35;2.00;;;;;;;8.82;69.32;99521.81;4938954;28;20019;-90
2022/09/21 00:17:08;;;;;;;8.43;2.63;;;;;;;8.75;69.16;99518.56;4955067;28;20557;-90
2022/09/21 00:19:34;;;;;;;5.30;2.72;;;;;;;8.63;69.61;99505.25;4939310;29;20122;-91
2022/09/21 00:21:59;;;;;;;4.50;2.40;;;;;;;8.53;69.46;99511.34;4938861;29;20090;-90
2022/09/21 00:24:25;;;;;;;6.03;2.63;;;;;;;8.46;70.21;99513.41;4939068;29;20030;-91
2022/09/21 00:26:50;;;;;;;3.90;2.55;;;;;;;8.50;69.71;99515.31;4955365;29;20123;-92
2022/09/21 00:29:16;;;;;;;3.63;2.30;;;;;;;8.50;69.51;99515.31;4951066;28;20022;-90
2022/09/21 00:31:41;;;;;;;3.88;2.53;;;;;;;8.56;69.75;99507.34;4961636;28;20104;-90
2022/09/21 00:34:06;;;;;;;8.52;2.67;;;;;;;8.54;69.45;99496.84;4961333;28;20468;-90
2022/09/21 00:36:32;;;;;;;5.20;2.70;;;;;;;8.53;69.33;99495.25;4961391;28;20026;-90
2022/09/21 00:39:00;;;;;;;3.22;2.40;;;;;;;8.58;69.83;99507.91;4977569;28;20081;-91
2022/09/21 00:41:26;;;;;;;5.70;3.22;;;;;;;8.44;70.06;99496.75;4977520;28;20026;-90
2022/09/21 00:44:22;;;;;;;4.72;2.65;;;;;;;8.73;69.15;99513.44;4993202;28;20559;-90
2022/09/21 00:46:48;;;;;;;4.88;2.80;;;;;;;8.77;68.70;99503.00;4961174;28;20079;-90
2022/09/21 00:49:13;;;;;;;6.28;3.20;;;;;;;8.61;69.39;99496.66;4960907;28;20037;-90
2022/09/21 00:51:40;;;;;;;5.45;2.40;;;;;;;8.62;69.37;99496.41;4976864;28;20018;-90
2022/09/21 00:54:13;;;;;;;3.83;2.33;;;;;;;8.62;69.88;99507.16;4993465;28;20077;-90
2022/09/21 00:56:38;;;;;;;4.68;2.35;;;;;;;8.79;68.96;99503.56;4977797;28;20093;-90
2022/09/21 00:59:04;;;;;;;6.13;2.25;;;;;;;8.72;69.27;99502.97;4976719;28;20476;-90
2022/09/21 01:01:29;;;;;;;3.83;2.08;;;;;;;8.70;69.20;99506.69;4977338;28;20022;-90
2022/09/21 01:03:56;;;;;;;3.40;2.10;;;;;;;8.61;69.67;99497.47;4961389;28;20014;-90
2022/09/21 01:06:21;;;;;;;2.90;1.70;;;;;;;8.66;69.63;99510.94;4977914;28;20382;-89
2022/09/21 01:08:53;;;;;;;3.80;2.10;;;;;;;8.56;69.26;99493.94;4968692;28;20030;-90
2022/09/21 01:11:38;;;;;;;2.80;2.10;;;;;;;8.74;69.32;99514.25;4939140;29;20086;-90
2022/09/21 01:14:16;;;;;;;3.03;1.90;;;;;;;8.68;69.84;99522.25;4970857;28;20029;-89
2022/09/21 01:17:02;;;;;;;4.18;2.03;;;;;;;8.63;70.03;99526.72;4954346;29;20086;-90
2022/09/21 01:19:46;;;;;;;6.50;2.30;;;;;;;8.60;70.29;99527.25;4975426;28;20058;-89
2022/09/21 01:22:24;;;;;;;3.92;2.10;;;;;;;8.54;69.76;99504.09;4993946;28;20137;-90
2022/09/21 01:25:12;;;;;;;4.30;1.92;;;;;;;8.54;69.98;99494.16;4977588;28;20123;-89
2022/09/21 01:27:47;;;;;;;3.00;2.05;;;;;;;8.63;69.99;99500.72;4980278;28;20026;-90
2022/09/21 01:30:17;;;;;;;2.58;1.70;;;;;;;8.33;70.80;99484.25;5013706;28;20029;-90
2022/09/21 01:32:53;;;;;;;2.78;1.80;;;;;;;8.46;71.08;99495.41;4965736;28;20023;-91
2022/09/21 01:35:33;;;;;;;4.20;1.90;;;;;;;8.30;71.29;99485.56;4980166;28;20084;-91
2022/09/21 01:38:02;;;;;;;5.03;1.92;;;;;;;8.35;70.78;99487.50;4964922;28;20477;-91
2022/09/21 01:40:31;;;;;;;2.92;1.65;;;;;;;8.20;71.21;99483.56;4964130;28;20019;-91
2022/09/21 01:42:56;;;;;;;2.58;1.75;;;;;;;8.15;70.59;99469.28;4964152;28;20607;-91
2022/09/21 01:45:28;;;;;;;3.63;1.95;;;;;;;8.27;70.73;99491.41;4963968;28;20038;-91
2022/09/21 01:47:54;;;;;;;;;;;;;;;8.36;70.38;99489.91;4964066;28;20033;-91
2022/09/21 01:50:20;;;;;;;2.50;1.55;;;;;;;8.36;69.64;99468.44;4996084;28;19913;-91
2022/09/21 01:53:16;;;;;;;3.08;1.77;;;;;;;8.61;69.40;99493.97;4979987;28;20026;-91
2022/09/21 01:55:45;;;;;;;2.40;1.70;;;;;;;8.80;68.97;99491.75;4973929;28;20070;-91
2022/09/21 01:58:18;;;;;;;3.47;2.10;;;;;;;8.77;68.29;99473.47;4963690;28;20036;-91
2022/09/21 02:00:45;;;;;;;2.55;2.05;;;;;;;8.93;67.94;99477.13;4996463;28;20495;-91
2022/09/21 02:03:13;;;;;;;3.95;1.90;;;;;;;9.16;67.22;99498.25;4963508;28;20049;-91
2022/09/21 02:05:39;;;;;;;2.35;1.88;;;;;;;8.92;68.36;99492.41;4995641;28;20030;-91
2022/09/21 02:08:05;;;;;;;5.82;1.90;;;;;;;8.77;68.73;99500.31;4979569;28;20034;-91
2022/09/21 02:10:37;;;;;;;3.15;1.95;;;;;;;8.72;68.96;99495.72;4979589;28;20507;-91
2022/09/21 02:13:04;;;;;;;2.90;2.00;;;;;;;8.68;69.05;99492.72;4963394;28;20512;-91
2022/09/21 02:16:09;;;;;;;2.92;1.80;;;;;;;8.54;69.37;99496.84;4963199;28;20038;-91
2022/09/21 02:18:51;;;;;;;2.35;1.95;;;;;;;8.40;70.19;99504.44;4959702;28;20484;-90
2022/09/21 02:22:05;;;;;;;5.97;1.92;;;;;;;8.25;71.23;99504.28;4977137;28;20567;-91
2022/09/21 02:24:40;;;;;;;4.00;2.10;;;;;;;8.21;71.00;99514.69;4955828;28;20147;-91
2022/09/21 02:27:11;;;;;;;4.63;1.55;;;;;;;8.15;70.71;99509.50;4977000;28;20069;-91
2022/09/21 02:30:08;;;;;;;2.63;1.80;;;;;;;8.30;69.69;99505.16;4976458;28;20034;-91
2022/09/21 02:32:52;;;;;;;4.55;1.70;;;;;;;8.18;70.35;99507.16;4948790;28;20089;-91
2022/09/21 02:35:31;;;;;;;4.03;2.15;;;;;;;8.08;70.49;99497.09;4976188;28;20126;-91
2022/09/21 02:38:03;;;;;;;2.28;1.60;;;;;;;8.02;71.06;99505.31;4975454;28;20042;-90
2022/09/21 02:40:40;;;;;;;2.50;1.80;;;;;;;7.77;71.18;99479.78;4960220;28;20117;-90
2022/09/21 02:43:28;;;;;;;2.90;2.00;;;;;;;7.66;71.15;99478.84;4944791;28;20058;-91
2022/09/21 02:45:58;;;;;;;3.15;1.85;;;;;;;7.69;71.01;99494.41;4962398;28;20038;-91
2022/09/21 02:48:28;;;;;;;3.70;1.95;;;;;;;7.75;71.63;99495.31;4959535;28;20062;-91
2022/09/21 02:50:54;;;;;;;3.67;1.63;;;;;;;7.81;71.11;99480.13;4959606;28;20034;-91
2022/09/21 02:53:28;;;;;;;2.58;1.90;;;;;;;7.73;71.52;99488.59;4943544;28;20031;-91
2022/09/21 02:55:54;;;;;;;3.35;1.95;;;;;;;7.69;71.64;99478.34;4943181;28;20042;-91
2022/09/21 02:58:20;;;;;;;4.85;2.08;;;;;;;7.74;71.49;99477.63;4943693;28;20476;-91
2022/09/21 03:00:45;;;;;;;6.65;2.05;;;;;;;7.85;71.28;99474.00;4943269;28;20026;-90
2022/09/21 03:03:19;;;;;;;3.05;2.13;;;;;;;7.88;71.09;99472.69;4943479;28;20093;-91
2022/09/21 03:05:46;;;;;;;3.90;2.00;;;;;;;8.09;70.51;99488.00;4943414;28;20030;-90
2022/09/21 03:08:11;;;;;;;2.97;2.47;;;;;;;7.98;70.71;99482.75;4943204;28;20027;-90
2022/09/21 03:10:39;;;;;;;3.95;2.53;;;;;;;8.07;70.60;99487.44;4943299;28;20098;-91
2022/09/21 03:13:08;;;;;;;4.90;2.55;;;;;;;8.15;70.20;99478.13;4943763;28;20035;-90
2022/09/21 03:15:42;;;;;;;4.57;3.05;;;;;;;8.11;70.98;99509.19;4943314;28;20030;-91
2022/09/21 03:18:08;;;;;;;4.97;2.88;;;;;;;7.93;70.76;99485.34;4974015;28;20050;-90
2022/09/21 03:20:35;;;;;;;5.63;2.45;;;;;;;7.90;71.02;99492.03;4978058;28;20109;-90
2022/09/21 03:23:00;;;;;;;5.60;2.78;;;;;;;7.82;71.28;99495.97;4978780;28;20031;-89
2022/09/21 03:25:27;;;;;;;6.80;2.58;;;;;;;7.71;70.97;99499.53;4961600;28;20022;-89
2022/09/21 03:27:52;;;;;;;4.93;2.40;;;;;;;7.83;70.55;99484.16;4993716;28;20027;-89
2022/09/21 03:30:19;;;;;;;8.55;2.50;;;;;;;7.98;70.42;99491.59;4944785;28;20037;-89
2022/09/21 03:32:47;;;;;;;5.63;2.38;;;;;;;8.07;70.18;99492.81;4943071;28;20031;-89
2022/09/21 03:35:13;;;;;;;3.50;2.42;;;;;;;8.20;69.58;99501.53;4958878;28;20448;-90
2022/09/21 03:37:38;;;;;;;4.20;2.30;;;;;;;7.95;70.39;99488.59;4941966;28;20031;-89
2022/09/21 03:40:04;;;;;;;4.35;2.45;;;;;;;7.92;70.79;99505.19;4971789;28;20026;-89
2022/09/21 03:42:30;;;;;;;3.80;2.22;;;;;;;7.81;71.18;99498.88;4975252;28;20034;-90
2022/09/21 03:44:55;;;;;;;5.60;2.85;;;;;;;7.72;71.60;99503.84;4975002;28;20029;-90
2022/09/21 03:47:21;;;;;;;4.03;2.15;;;;;;;7.83;71.33;99502.13;4975944;28;20037;-90
2022/09/21 03:49:46;;;;;;;4.40;2.58;;;;;;;7.89;70.62;99514.53;4959052;28;20022;-90
2022/09/21 03:52:12;;;;;;;10.35;2.70;;;;;;;7.51;72.13;99512.63;4975728;28;20109;-89
2022/09/21 03:54:37;;;;;;;3.63;2.38;;;;;;;7.56;71.53;99496.66;4959364;28;20030;-89
2022/09/21 03:57:03;;;;;;;10.98;2.50;;;;;;;7.56;71.39;99510.03;4975353;28;20664;-90
2022/09/21 03:59:28;;;;;;;4.40;2.35;;;;;;;7.44;72.18;99518.16;4965305;28;20100;-90
2022/09/21 04:01:54;;;;;;;3.78;2.58;;;;;;;7.38;72.17;99524.50;4940697;28;20516;-90
2022/09/21 04:04:20;;;;;;;5.45;2.72;;;;;;;7.37;72.14;99525.56;4979399;28;20034;-90
2022/09/21 04:06:46;;;;;;;13.13;3.15;;;;;;;7.18;72.87;99522.28;4965802;28;20039;-90
2022/09/21 04:09:17;;;;;;;7.75;3.85;;;;;;;7.22;72.17;99513.53;4936456;29;20038;-90
2022/09/21 04:11:47;;;;;;;6.65;4.13;;;;;;;7.22;72.23;99508.19;4956573;28;20023;-91
2022/09/21 04:14:12;;;;;;;11.75;4.30;;;;;;;7.62;71.06;99522.47;4956317;28;20421;-93
2022/09/21 04:16:39;;;;;;;7.95;3.25;;;;;;;7.65;70.50;99504.00;4972316;28;20058;-93
2022/09/21 04:19:05;;;;;;;10.18;4.07;;;;;;;7.49;71.37;99502.16;4956127;29;20034;-93
2022/09/21 04:21:31;;;;;;;8.88;4.47;;;;;;;7.46;71.72;99506.13;4958839;29;20027;-92
2022/09/21 04:23:57;;;;;;;8.07;3.45;;;;;;;7.34;71.89;99515.31;4956560;28;20031;-92
2022/09/21 04:26:27;;;;;;;10.18;3.72;;;;;;;7.40;72.17;99531.22;4956709;29;20027;-92
2022/09/21 04:28:53;;;;;;;9.13;3.50;;;;;;;7.42;71.97;99526.44;4971917;28;20181;-93
2022/09/21 04:31:19;;;;;;;8.15;3.72;;;;;;;7.33;71.96;99509.16;4955721;28;20082;-91
2022/09/21 04:33:48;;;;;;;6.95;3.38;;;;;;;7.48;71.29;99517.44;4954673;28;20027;-92
2022/09/21 04:36:14;;;;;;;11.30;4.05;;;;;;;7.44;71.43;99527.00;4970710;28;20165;-91
2022/09/21 04:38:39;;;;;;;8.75;4.45;;;;;;;7.53;71.15;99534.63;4977356;28;20125;-91
2022/09/21 04:41:05;;;;;;;9.40;4.28;;;;;;;7.60;71.28;99514.66;4977994;28;20033;-91
2022/09/21 04:43:31;;;;;;;11.95;5.50;;;;;;;7.65;71.17;99524.63;4970563;28;20123;-91
2022/09/21 04:45:57;;;;;;;15.73;5.00;;;;;;;7.62;71.46;99527.81;4977304;28;20030;-92
2022/09/21 04:48:23;;;;;;;7.32;4.72;;;;;;;7.56;71.03;99515.41;4994589;28;20027;-90
2022/09/21 04:50:49;;;;;;;15.60;7.18;;;;;;;7.70;70.95;99538.13;4977886;28;20188;-92
2022/09/21 04:53:15;;;;;;;18.40;9.32;;;;;;;7.79;70.96;99539.31;4960558;28;20096;-91
2022/09/21 04:55:40;;;;;;;19.17;7.55;;;;;;;7.87;70.41;99536.22;4961071;28;20117;-93
2022/09/21 04:58:06;;;;;;;11.82;6.32;;;;;;;7.86;70.49;99525.75;4961293;28;20517;-91
2022/09/21 05:00:32;;;;;;;13.90;6.80;;;;;;;8.04;70.53;99540.75;4961058;28;20026;-91
2022/09/21 05:02:58;;;;;;;11.48;6.07;;;;;;;8.07;69.97;99526.84;4964664;28;20022;-94
2022/09/21 05:06:13;;;;;;;12.48;6.50;;;;;;;8.32;69.31;99563.91;4982446;28;20038;-95
2022/09/21 05:11:26;;;;;;;18.27;8.32;;;;;;;8.43;69.15;99543.44;4981113;28;20052;-94
2022/09/21 05:13:52;;;;;;;14.20;7.57;;;;;;;8.61;68.29;99542.28;4963035;28;20026;-92
2022/09/21 05:16:18;;;;;;;16.05;7.63;;;;;;;8.51;68.42;99534.94;4942620;28;20035;-91
2022/09/21 05:18:47;;;;;;;18.25;10.02;;;;;;;8.57;68.84;99558.09;4944164;28;20128;-92
2022/09/21 05:21:13;;;;;;;24.80;13.43;;;;;;;8.63;68.67;99541.00;4947398;28;20034;-91
2022/09/21 05:23:43;;;;;;;14.38;7.47;;;;;;;8.90;67.28;99538.31;4953432;28;20026;-93
2022/09/21 05:26:09;;;;;;;13.75;6.50;;;;;;;8.98;66.85;99523.59;4960978;28;20103;-93
2022/09/21 05:28:35;;;;;;;15.13;7.65;;;;;;;9.35;67.21;99555.09;4926406;28;20042;-95
2022/09/21 05:31:23;;;;;;;25.95;14.52;;;;;;;9.60;65.86;99551.00;4928418;28;20127;-95
2022/09/21 05:33:58;;;;;;;14.13;8.30;;;;;;;9.74;65.22;99536.06;4945911;28;20027;-92
2022/09/21 05:36:34;;;;;;;10.27;5.97;;;;;;;9.89;65.05;99535.34;4928207;28;20069;-93
2022/09/21 05:39:19;;;;;;;77.18;47.40;;;;;;;10.11;64.87;99530.63;4957803;28;20046;-91
2022/09/21 05:41:48;;;;;;;50.90;33.75;;;;;;;10.32;63.55;99528.88;4973417;28;20046;-92
2022/09/21 05:44:25;;;;;;;33.53;21.80;;;;;;;10.63;63.10;99550.53;4940941;28;20038;-91
2022/09/21 05:47:22;;;;;;;13.27;8.95;;;;;;;10.71;63.00;99555.41;4926920;28;20042;-92
2022/09/21 05:50:45;;;;;;;15.77;8.57;;;;;;;10.64;62.46;99549.44;4922883;29;20155;-93
2022/09/21 05:53:29;;;;;;;24.73;13.55;;;;;;;10.82;63.01;99550.84;4934447;29;20044;-93
2022/09/21 05:55:57;;;;;;;11.82;7.30;;;;;;;10.77;62.67;99532.00;4933541;29;20070;-93
2022/09/21 06:02:06;;;;;;;12.80;6.27;;;;;;;10.92;61.57;99542.78;4934090;29;20055;-92
2022/09/21 06:05:46;;;;;;;;;;;;;;;;;;;;;
2022/09/21 06:08:25;;;;;;;;;;;;;;;;;;;;;
2022/09/21 06:11:36;;;;;;;4.80;3.50;;;;;;;11.35;60.76;99547.13;4922562;29;20089;-93
2022/09/21 06:14:23;;;;;;;;;;;;;;;;;;;;;
2022/09/21 06:16:49;;;;;;;14.55;7.72;;;;;;;11.47;60.41;99518.81;4914811;29;20122;-93
2022/09/21 06:19:14;;;;;;;6.32;4.07;;;;;;;11.74;60.12;99533.91;4923098;29;20055;-92
2022/09/21 06:21:45;;;;;;;2.88;1.90;;;;;;;11.81;59.19;99512.06;4922064;28;20031;-89
2022/09/21 06:24:11;;;;;;;1.40;1.10;;;;;;;12.05;58.64;99518.50;4971590;28;20026;-93
2022/09/21 06:26:49;;;;;;;2.28;1.15;;;;;;;12.15;57.84;99516.84;4964329;28;20034;-93
2022/09/21 06:29:22;;;;;;;2.20;1.25;;;;;;;12.25;57.61;99506.03;4964292;28;20130;-89
2022/09/21 06:31:50;;;;;;;2.00;1.30;;;;;;;12.54;57.20;99541.28;4964949;28;20121;-88
2022/09/21 06:34:16;;;;;;;3.03;2.10;;;;;;;12.66;57.94;99543.66;4974125;28;20084;-88
2022/09/21 06:36:46;;;;;;;3.90;1.20;;;;;;;12.64;57.14;99535.81;4979230;28;20026;-89
2022/09/21 06:39:51;;;;;;;2.88;1.38;;;;;;;12.78;56.97;99540.59;4983379;28;20117;-93
2022/09/21 06:42:27;;;;;;;3.72;2.35;;;;;;;12.81;57.40;99513.84;4954475;28;20063;-93
2022/09/21 06:44:54;;;;;;;3.22;1.65;;;;;;;13.06;56.23;99526.38;5001002;28;20496;-94
2022/09/21 06:47:19;;;;;;;3.45;2.67;;;;;;;13.06;56.38;99515.56;4984257;28;20032;-93
2022/09/21 06:50:23;;;;;;;;;;;;;;;;;;;;;
2022/09/21 06:53:16;;;;;;;3.10;1.48;;;;;;;13.25;56.58;99540.03;4980004;28;20192;-95
2022/09/21 06:55:42;;;;;;;1.98;1.10;;;;;;;13.03;56.45;99510.75;4973216;28;20034;-94
2022/09/21 06:58:08;;;;;;;4.45;2.05;;;;;;;13.12;57.63;99525.25;5001132;28;20120;-93
2022/09/21 07:00:33;;;;;;;2.50;1.45;;;;;;;13.28;57.06;99527.84;4985646;28;20030;-96
2022/09/21 07:02:59;;;;;;;5.10;2.35;;;;;;;13.22;57.33;99504.63;4967785;28;20085;-93
2022/09/21 07:05:28;;;;;;;3.03;1.98;;;;;;;13.40;56.93;99514.00;4965664;28;20053;-94
2022/09/21 07:08:14;;;;;;;12.65;8.15;;;;;;;13.70;56.43;99539.97;4969107;28;20208;-95
2022/09/21 07:11:12;;;;;;;2.42;1.92;;;;;;;13.60;55.68;99508.41;4994833;28;20030;-96
2022/09/21 07:13:47;;;;;;;4.18;2.50;;;;;;;13.99;55.72;99542.66;4976727;28;20035;-94
2022/09/21 07:18:52;;;;;;;9.38;5.35;;;;;;;14.23;54.58;99533.72;5261913;23;20081;-95
2022/09/21 07:21:21;;;;;;;10.25;6.95;;;;;;;14.31;54.90;99514.13;4964897;28;20035;-93
2022/09/21 07:24:15;;;;;;;4.78;3.10;;;;;;;14.35;53.92;99505.13;4987778;28;20022;-97
2022/09/21 07:26:41;;;;;;;1.40;0.80;;;;;;;14.58;52.08;99508.13;5005210;28;20036;-95
2022/09/21 07:29:07;;;;;;;3.70;2.35;;;;;;;14.68;52.38;99529.66;4989822;28;20028;-94
2022/09/21 07:31:32;;;;;;;1.77;1.20;;;;;;;14.72;52.10;99513.63;4970898;28;20033;-93
2022/09/21 07:34:00;;;;;;;1.92;1.30;;;;;;;14.89;52.53;99513.91;4973413;28;20142;-94
2022/09/21 07:36:46;;;;;;;2.85;0.93;;;;;;;15.15;50.95;99516.28;4977080;28;20022;-95
2022/09/21 07:39:15;;;;;;;1.08;0.77;;;;;;;15.12;50.30;99495.94;4982430;28;20103;-95
2022/09/21 07:47:03;;;;;;;1.80;1.10;;;;;;;15.57;49.78;99536.19;4975067;28;20392;-95
2022/09/21 07:49:31;;;;;;;1.75;1.00;;;;;;;15.45;49.89;99514.94;5009651;28;20026;-94
2022/09/21 07:52:02;;;;;;;1.33;0.88;;;;;;;15.56;49.36;99510.97;4989346;28;20061;-95
2022/09/21 07:54:34;;;;;;;2.80;1.05;;;;;;;15.61;48.55;99515.50;4992919;28;20034;-95
2022/09/21 08:00:03;;;;;;;1.95;1.00;;;;;;;15.52;49.60;99541.69;5011942;28;20048;-96
2022/09/21 08:09:15;;;;;;;2.28;0.90;;;;;;;15.56;49.13;99524.56;5022957;28;20029;-95
2022/09/21 08:11:43;;;;;;;1.15;0.85;;;;;;;15.61;48.57;99514.72;4984659;28;20026;-93
2022/09/21 08:14:20;;;;;;;2.10;1.40;;;;;;;15.75;48.53;99529.16;5261009;23;20057;-94
2022/09/21 08:16:46;;;;;;;2.65;0.90;;;;;;;15.88;47.82;99520.19;4993261;28;20045;-95
2022/09/21 08:19:12;;;;;;;2.03;1.45;;;;;;;15.90;48.18;99512.56;4973184;28;20026;-96
2022/09/21 08:21:41;;;;;;;3.45;2.13;;;;;;;16.02;47.58;99513.97;4970344;28;20140;-95
2022/09/21 08:24:10;;;;;;;1.10;0.95;;;;;;;16.08;47.43;99513.59;4983951;28;20116;-93
2022/09/21 08:26:39;;;;;;;3.15;1.13;;;;;;;16.13;46.42;99508.03;4990466;28;20032;-96
2022/09/21 08:29:13;;;;;;;5.32;1.15;;;;;;;16.20;47.03;99531.28;4989296;28;20025;-94
2022/09/21 08:31:38;;;;;;;1.65;0.80;;;;;;;16.33;46.34;99527.75;4994309;28;20045;-96
2022/09/21 08:34:04;;;;;;;2.13;0.77;;;;;;;16.45;45.71;99524.53;4989595;28;20032;-94
2022/09/21 08:36:33;;;;;;;4.05;1.67;;;;;;;16.31;46.33;99521.81;4993437;28;20025;-95
2022/09/21 08:39:07;;;;;;;1.80;1.10;;;;;;;16.31;45.65;99517.22;4990196;28;20036;-95
2022/09/21 08:42:22;;;;;;;1.33;0.60;;;;;;;16.50;45.08;99525.25;4993175;28;20026;-96
2022/09/21 08:45:00;;;;;;;1.75;0.88;;;;;;;16.41;45.73;99510.72;5011516;28;20061;-95
2022/09/21 08:47:40;;;;;;;1.17;0.85;;;;;;;16.47;44.94;99514.97;5010542;28;20029;-95
2022/09/21 08:50:38;;;;;;;1.70;1.10;;;;;;;16.43;44.45;99494.13;4991861;28;20092;-96
2022/09/21 08:53:15;;;;;;;1.42;1.00;;;;;;;16.48;44.74;99492.13;5021358;28;20025;-95
2022/09/21 08:55:44;;;;;;;17.77;10.35;;;;;;;16.65;45.90;99507.00;4990792;28;20025;-96
2022/09/21 08:58:28;;;;;;;6.55;4.03;;;;;;;16.69;45.36;99513.44;4995474;28;20025;-94
2022/09/21 09:01:31;;;;;;;0.77;0.70;;;;;;;16.57;45.02;99503.06;5005315;28;20476;-95
2022/09/21 09:04:32;;;;;;;1.42;0.60;;;;;;;16.57;44.41;99520.19;4999419;28;20041;-96
2022/09/21 09:07:43;;;;;;;29.63;20.52;;;;;;;16.22;45.38;99513.56;5032891;28;20009;-93
2022/09/21 09:10:22;;;;;;;1.70;0.97;;;;;;;16.47;45.75;99514.97;4985515;28;20025;-95
2022/09/21 09:13:32;;;;;;;0.80;0.73;;;;;;;16.34;44.82;99513.88;4967749;28;20788;-94
2022/09/21 09:15:57;;;;;;;2.40;0.80;;;;;;;16.41;44.29;99509.94;4966287;28;20050;-93
2022/09/21 09:18:47;;;;;;;3.15;0.80;;;;;;;16.33;44.54;99482.38;4982954;28;20029;-94
2022/09/21 09:21:46;;;;;;;1.17;0.80;;;;;;;16.47;44.37;99476.91;4953465;28;20537;-95
2022/09/21 09:24:43;;;;;;;2.30;0.95;;;;;;;16.60;44.27;99478.00;4992015;28;20034;-94
2022/09/21 09:27:15;;;;;;;1.05;0.70;;;;;;;16.73;43.45;99479.06;4979222;28;20030;-96
2022/09/21 09:30:02;;;;;;;1.13;0.80;;;;;;;16.85;43.31;99476.66;4956705;28;20112;-95
2022/09/21 09:32:52;;;;;;;1.65;0.80;;;;;;;16.94;42.91;99469.34;4994274;28;20065;-96
2022/09/21 09:35:29;;;;;;;1.73;1.00;;;;;;;16.95;43.09;99468.25;4994403;28;20054;-96
2022/09/21 09:38:05;;;;;;;3.92;1.35;;;;;;;17.06;42.98;99455.22;4973078;28;20053;-94
2022/09/21 09:40:56;;;;;;;1.92;0.90;;;;;;;17.15;42.76;99472.38;4973222;28;20034;-96
2022/09/21 09:43:34;;;;;;;1.07;0.73;;;;;;;17.45;41.94;99471.91;4973021;28;20030;-95
2022/09/21 09:46:44;;;;;;;0.60;0.60;;;;;;;17.31;41.42;99461.13;4988527;28;20277;-96
2022/09/21 09:49:44;;;;;;;1.88;0.80;;;;;;;17.38;41.21;99445.94;4976590;28;20019;-96
2022/09/21 09:52:21;;;;;;;0.73;0.70;;;;;;;17.35;41.12;99445.78;4984661;28;20098;-96
2022/09/21 09:55:37;;;;;;;18.63;11.38;;;;;;;17.60;42.09;99474.25;4962611;28;20097;-96
2022/09/21 10:04:14;;;;;;;0.80;0.60;;;;;;;17.58;40.72;99443.81;5166685;23;20042;-96
2022/09/21 10:07:32;;;;;;;1.15;0.63;;;;;;;17.35;40.99;99451.22;4960403;28;20039;-96
2022/09/21 10:13:42;;;;;;;1.02;0.73;;;;;;;16.85;48.56;99459.50;5456745;22;20044;-96
2022/09/21 10:16:18;;;;;;;1.27;0.68;;;;;;;16.66;50.81;99452.28;4982544;28;20093;-96
2022/09/21 10:27:32;;;;;;;2.00;1.23;;;;;;;16.58;58.07;99466.63;5771882;22;20050;-95
2022/09/21 10:30:55;;;;;;;4.43;1.52;;;;;;;16.53;60.80;99466.72;5011523;28;20061;-93
2022/09/21 10:39:35;;;;;;;3.60;0.60;;;;;;;16.40;50.15;99438.47;5171123;23;20104;-96
2022/09/21 10:42:38;;;;;;;0.60;0.55;;;;;;;16.56;47.87;99439.75;5030480;28;20484;-94
2022/09/21 10:45:17;;;;;;;0.90;0.70;;;;;;;16.43;49.73;99458.81;4937153;28;20023;-96
2022/09/21 10:53:30;;;;;;;5.88;3.05;;;;;;;16.40;51.35;99459.44;2462103;23;21552;-94
2022/09/21 10:56:32;;;;;;;;;;;;;;;;;;;;;
2022/09/21 11:09:05;;;;;;;;;;;;;;;15.83;55.30;99449.69;5036756;23;20050;-95
2022/09/21 11:12:04;;;;;;;2.63;1.77;;;;;;;15.75;55.28;99451.22;4982541;28;19941;-94
2022/09/21 11:15:27;;;;;;;6.85;4.20;;;;;;;15.73;55.24;99412.69;5034636;28;20025;-96
2022/09/21 11:20:56;;;;;;;2.33;1.60;;;;;;;15.82;57.27;99418.22;5491971;23;20120;-94
2022/09/21 11:23:48;;;;;;;3.03;1.70;;;;;;;16.03;57.07;99443.06;4996484;28;20061;-96
2022/09/21 11:29:17;;;;;;;2.15;1.35;;;;;;;16.02;59.72;99422.44;5138850;23;20049;-94
2022/09/21 11:32:01;;;;;;;2.83;1.65;;;;;;;16.20;58.97;99442.44;4955250;28;20051;-95
2022/09/21 11:35:21;;;;;;;;;;;;;;;;;;;;;
2022/09/21 11:38:30;;;;;;;3.20;1.05;;;;;;;16.56;54.19;99426.16;4983134;28;20110;-96
2022/09/21 11:45:00;;;;;;;3.53;2.03;;;;;;;16.76;51.58;99414.00;4972381;28;20097;-89
2022/09/21 11:47:39;;;;;;;4.93;2.00;;;;;;;16.94;54.09;99433.19;4932711;29;20040;-90
2022/09/21 11:50:16;;;;;;;8.65;5.60;;;;;;;16.90;54.83;99411.25;4909017;29;20522;-90
2022/09/21 11:53:20;;;;;;;;;;;;;;;;;;;;;
2022/09/21 11:56:07;;;;;;;6.47;2.60;;;;;;;16.94;59.32;99417.69;4977631;28;20030;-92
2022/09/21 11:59:05;;;;;;;4.53;3.10;;;;;;;16.82;58.62;99409.25;4960408;28;20030;-92
2022/09/21 12:02:08;;;;;;;3.80;2.80;;;;;;;16.82;57.91;99412.00;4976738;28;20035;-94
2022/09/21 12:04:59;;;;;;;4.10;3.40;;;;;;;16.84;58.08;99408.97;4969244;28;20042;-93
2022/09/21 12:07:48;;;;;;;3.25;2.30;;;;;;;16.91;57.41;99422.91;4962425;28;20524;-91
2022/09/21 12:10:41;;;;;;;2.80;1.80;;;;;;;16.87;55.52;99402.91;4977345;28;20057;-95
2022/09/21 12:24:29;;;;;;;;;;;;;;;;;;;;;
2022/09/21 12:26:57;;;;;;;4.07;1.85;;;;;;;16.62;48.43;99407.81;4924750;28;20231;-90
2022/09/21 12:30:26;;;;;;;1.35;0.93;;;;;;;16.41;46.53;99393.88;4974957;28;20018;-90
2022/09/21 12:36:32;;;;;;;2.05;1.60;;;;;;;16.42;50.79;99386.56;4901958;29;20059;-91
2022/09/21 12:39:04;;;;;;;5.47;2.10;;;;;;;16.40;55.18;99384.13;4900509;29;20028;-90
2022/09/21 12:42:21;;;;;;;3.30;1.23;;;;;;;16.53;53.64;99405.00;4947888;28;20461;-89
2022/09/21 12:44:51;;;;;;;3.47;2.55;;;;;;;16.58;53.74;99409.56;4975412;28;20053;-94
2022/09/21 12:47:23;;;;;;;3.25;2.40;;;;;;;16.71;56.42;99416.03;4944502;28;20045;-90
2022/09/21 12:50:09;;;;;;;5.85;2.28;;;;;;;16.64;57.60;99393.91;4957728;28;20411;-91
2022/09/21 12:52:37;;;;;;;3.35;2.20;;;;;;;16.68;56.87;99397.63;4970537;28;20045;-94
2022/09/21 12:55:21;;;;;;;3.72;2.15;;;;;;;16.59;56.14;99397.56;4947284;28;20094;-94
2022/09/21 12:57:53;;;;;;;5.22;2.80;;;;;;;16.75;55.03;99400.72;4930322;29;20027;-92
2022/09/21 13:00:28;;;;;;;2.55;1.58;;;;;;;16.75;56.47;99403.44;4941447;29;20023;-93
2022/09/21 13:03:43;;;;;;;2.28;1.30;;;;;;;16.50;58.16;99388.53;4928571;29;20118;-95
2022/09/21 13:07:02;;;;;;;3.67;2.30;;;;;;;16.23;56.21;99397.53;4934794;29;20038;-94
2022/09/21 13:09:27;;;;;;;2.13;1.80;;;;;;;16.10;56.56;99382.88;4971172;29;20027;-96
2022/09/21 13:12:26;;;;;;;3.80;1.95;;;;;;;16.05;56.49;99381.09;4922197;29;20030;-93
2022/09/21 13:15:18;;;;;;;1.88;1.23;;;;;;;15.93;57.56;99389.75;4937953;29;20122;-95
2022/09/21 13:24:06;;;;;;;2.78;1.08;;;;;;;15.78;59.04;99386.56;4986655;28;20047;-92
2022/09/21 13:27:09;;;;;;;3.58;1.20;;;;;;;16.14;58.25;99430.06;4983284;28;20034;-90
2022/09/21 13:29:41;;;;;;;3.97;2.72;;;;;;;16.29;57.91;99423.50;4963454;29;20034;-92
2022/09/21 13:32:31;;;;;;;1.90;1.02;;;;;;;16.34;57.48;99428.84;4968427;29;20054;-95
2022/09/21 13:35:37;;;;;;;4.43;1.10;;;;;;;16.36;57.88;99421.19;4973668;28;20058;-96
2022/09/21 13:38:25;;;;;;;1.92;0.80;;;;;;;16.28;55.37;99439.00;4927509;29;20552;-94
2022/09/21 13:40:59;;;;;;;1.88;1.10;;;;;;;16.03;56.30;99420.53;4926874;29;20044;-91
2022/09/21 13:43:55;;;;;;;1.58;1.10;;;;;;;16.01;58.56;99430.88;4916106;29;20102;-94
2022/09/21 13:46:49;;;;;;;1.65;0.98;;;;;;;15.88;59.12;99441.47;4938202;29;20031;-96
2022/09/21 13:50:26;;;;;;;2.47;1.25;;;;;;;15.63;58.44;99420.22;4949127;29;20049;-96
2022/09/21 13:56:00;;;;;;;4.07;1.45;;;;;;;15.61;58.70;99447.66;4422775;23;20135;31
2022/09/21 13:59:10;;;;;;;3.20;1.77;;;;;;;15.54;56.89;99433.66;4952508;28;20054;-93
2022/09/21 14:01:58;;;;;;;1.40;1.10;;;;;;;15.51;55.96;99431.56;4897265;29;20389;-96
2022/09/21 14:04:26;;;;;;;2.40;1.70;;;;;;;15.56;55.67;99456.69;4897823;29;20232;-94
2022/09/21 14:06:53;;;;;;;2.00;1.40;;;;;;;15.58;57.72;99437.38;4872507;29;20031;-96
2022/09/21 14:09:58;;;;;;;6.30;4.40;;;;;;;15.55;56.76;99444.22;4879657;29;20037;-95
2022/09/21 14:12:25;;;;;;;1.30;0.90;;;;;;;15.57;55.29;99441.22;4895978;29;20037;-95